createdAt,value
2018-12-02T00:00:26.642Z,145.83
2018-12-02T00:02:55.024Z,117.73
2018-12-02T00:05:23.415Z,105.93
2018-12-02T00:07:51.483Z,107.77
2018-12-02T00:10:20.114Z,98.73
2018-12-02T00:12:48.342Z,97.27
2018-12-02T00:15:17.350Z,97.50
2018-12-02T00:17:45.514Z,109.93
2018-12-02T00:20:14.357Z,125.43
2018-12-02T00:22:42.464Z,122.87
2018-12-02T00:25:12.351Z,135.47
2018-12-02T00:27:40.621Z,128.43
2018-12-02T00:30:14.555Z,124.77
2018-12-02T00:32:42.624Z,126.70
2018-12-02T00:35:11.864Z,153.20
2018-12-02T00:37:40.192Z,140.73
2018-12-02T00:40:14.954Z,120.77
2018-12-02T00:42:45.053Z,109.20
2018-12-02T00:45:15.424Z,121.10
2018-12-02T00:47:43.664Z,117.77
2018-12-02T00:50:15.085Z,108.67
2018-12-02T00:52:44.620Z,144.87
2018-12-02T00:55:14.680Z,141.67
2018-12-02T00:57:42.654Z,144.57
2018-12-02T01:00:11.976Z,133.97
2018-12-02T01:02:40.224Z,127.50
2018-12-02T01:05:10.576Z,135.67
2018-12-02T01:07:38.698Z,127.93
2018-12-02T01:10:09.956Z,117.00
2018-12-02T01:12:38.887Z,129.33
2018-12-02T01:15:09.037Z,119.57
2018-12-02T01:17:37.120Z,128.00
2018-12-02T01:20:22.193Z,132.63
2018-12-02T01:22:50.415Z,120.17
2018-12-02T01:25:18.481Z,126.83
2018-12-02T01:27:46.803Z,132.10
2018-12-02T01:30:15.853Z,126.17
2018-12-02T01:32:43.942Z,120.43
2018-12-02T01:35:12.311Z,130.73
2018-12-02T01:37:40.637Z,125.40
2018-12-02T01:40:16.440Z,130.47
2018-12-02T01:42:44.598Z,125.47
2018-12-02T01:45:17.471Z,124.97
2018-12-02T01:47:45.516Z,127.97
2018-12-02T01:50:18.227Z,125.47
2018-12-02T01:52:49.375Z,133.87
2018-12-02T01:55:17.509Z,114.20
2018-12-02T01:57:45.791Z,102.53
2018-12-02T02:00:17.691Z,136.57
2018-12-02T02:02:46.660Z,135.27
2018-12-02T02:05:15.476Z,139.20
2018-12-02T02:07:43.512Z,162.93
2018-12-02T02:10:16.380Z,171.73
2018-12-02T02:12:45.075Z,157.10
2018-12-02T02:15:14.127Z,142.33
2018-12-02T02:17:42.156Z,141.13
2018-12-02T02:20:21.354Z,140.43
2018-12-02T02:22:49.375Z,132.80
2018-12-02T02:25:18.273Z,130.77
2018-12-02T02:27:49.548Z,138.20
2018-12-02T02:30:22.225Z,126.43
2018-12-02T02:32:50.476Z,123.13
2018-12-02T02:35:20.116Z,145.57
2018-12-02T02:37:49.418Z,142.53
2018-12-02T02:40:21.314Z,139.23
2018-12-02T02:42:49.753Z,161.43
2018-12-02T02:45:17.855Z,162.27
2018-12-02T02:47:45.947Z,185.87
2018-12-02T02:50:24.342Z,175.90
2018-12-02T02:53:01.928Z,200.37
2018-12-02T02:55:30.170Z,206.20
2018-12-02T02:57:58.408Z,193.60
2018-12-02T03:00:27.446Z,182.07
2018-12-02T03:02:56.628Z,156.70
2018-12-02T03:05:24.833Z,168.87
2018-12-02T03:07:53.825Z,173.33
2018-12-02T03:10:22.135Z,171.07
2018-12-02T03:12:52.185Z,170.87
2018-12-02T03:15:21.652Z,173.57
2018-12-02T03:17:50.604Z,178.83
2018-12-02T03:20:19.638Z,174.23
2018-12-02T03:22:53.242Z,174.87
2018-12-02T03:25:22.238Z,156.77
2018-12-02T03:27:50.901Z,170.53
2018-12-02T03:30:20.837Z,171.43
2018-12-02T03:32:49.373Z,168.47
2018-12-02T03:35:19.345Z,156.10
2018-12-02T03:37:47.399Z,137.70
2018-12-02T03:40:18.260Z,157.27
2018-12-02T03:42:46.251Z,148.20
2018-12-02T03:45:15.366Z,162.50
2018-12-02T03:47:43.427Z,137.47
2018-12-02T03:50:17.552Z,128.63
2018-12-02T03:52:42.215Z,141.00
2018-12-02T03:55:10.431Z,146.93
2018-12-02T03:57:38.551Z,128.20
2018-12-02T04:00:16.029Z,119.23
2018-12-02T04:02:44.192Z,118.00
2018-12-02T04:05:15.484Z,113.07
2018-12-02T04:07:43.714Z,117.00
2018-12-02T04:10:13.427Z,122.23
2018-12-02T04:12:41.581Z,122.07
2018-12-02T04:15:15.315Z,111.10
2018-12-02T04:17:43.715Z,130.07
2018-12-02T04:20:12.633Z,129.20
2018-12-02T04:22:40.754Z,130.10
2018-12-02T04:25:12.855Z,138.87
2018-12-02T04:27:41.190Z,127.63
2018-12-02T04:30:10.731Z,109.27
2018-12-02T04:32:38.869Z,143.10
2018-12-02T04:35:08.477Z,132.37
2018-12-02T04:37:36.525Z,138.00
2018-12-02T04:40:06.805Z,127.60
2018-12-02T04:42:34.927Z,123.43
2018-12-02T04:45:03.028Z,132.57
2018-12-02T04:47:31.088Z,127.40
2018-12-02T04:49:59.270Z,134.10
2018-12-02T04:52:27.397Z,128.63
2018-12-02T04:54:55.439Z,122.17
2018-12-02T04:57:23.485Z,120.77
2018-12-02T04:59:51.549Z,124.87
2018-12-02T05:02:19.587Z,138.53
2018-12-02T05:04:47.666Z,139.83
2018-12-02T05:07:16.481Z,134.07
2018-12-02T05:09:44.544Z,115.17
2018-12-02T05:12:12.741Z,166.97
2018-12-02T05:14:41.149Z,151.00
2018-12-02T05:17:10.125Z,168.77
2018-12-02T05:19:38.217Z,147.03
2018-12-02T05:22:06.540Z,173.07
2018-12-02T05:24:35.616Z,162.40
2018-12-02T05:27:03.929Z,148.97
2018-12-02T05:29:34.268Z,147.13
2018-12-02T05:32:02.480Z,136.57
2018-12-02T05:34:30.705Z,127.43
2018-12-02T05:37:00.291Z,119.67
2018-12-02T05:39:28.338Z,125.57
2018-12-02T05:42:02.142Z,137.80
2018-12-02T05:44:30.391Z,139.90
2018-12-02T05:46:59.160Z,138.07
2018-12-02T05:49:27.184Z,144.17
2018-12-02T05:51:55.450Z,140.30
2018-12-02T05:54:23.525Z,141.80
2018-12-02T05:56:51.583Z,136.73
2018-12-02T05:59:19.970Z,144.70
2018-12-02T06:01:48.160Z,142.07
2018-12-02T06:04:16.307Z,154.47
2018-12-02T06:06:44.647Z,136.10
2018-12-02T06:09:13.206Z,144.03
2018-12-02T06:11:43.764Z,138.97
2018-12-02T06:14:09.517Z,136.93
2018-12-02T06:16:37.641Z,132.83
2018-12-02T06:19:05.793Z,147.63
2018-12-02T06:21:34.455Z,124.43
2018-12-02T06:24:05.877Z,144.03
2018-12-02T06:26:34.097Z,156.03
2018-12-02T06:29:02.342Z,147.07
2018-12-02T06:31:30.668Z,137.50
2018-12-02T06:33:59.786Z,123.93
2018-12-02T06:36:28.987Z,163.87
2018-12-02T06:38:58.463Z,130.90
2018-12-02T06:41:28.102Z,123.67
2018-12-02T06:43:56.288Z,148.97
2018-12-02T06:46:24.598Z,153.00
2018-12-02T06:48:54.947Z,133.93
2018-12-02T06:51:23.393Z,129.70
2018-12-02T06:53:51.767Z,129.87
2018-12-02T06:56:22.138Z,126.27
2018-12-02T06:59:55.242Z,120.40
2018-12-02T07:02:46.452Z,131.63
2018-12-02T07:05:21.716Z,138.83
2018-12-02T07:07:51.593Z,136.27
2018-12-02T07:10:20.010Z,137.70
2018-12-02T07:12:48.048Z,131.70
2018-12-02T07:15:17.502Z,117.13
2018-12-02T07:17:45.696Z,140.67
2018-12-02T07:20:15.134Z,132.00
2018-12-02T07:22:43.981Z,127.17
2018-12-02T07:25:13.677Z,121.23
2018-12-02T07:27:41.740Z,122.57
2018-12-02T07:30:11.168Z,116.97
2018-12-02T07:32:50.121Z,119.17
2018-12-02T07:35:19.495Z,112.97
2018-12-02T07:37:49.996Z,115.47
2018-12-02T07:40:34.089Z,115.13
2018-12-02T07:43:03.133Z,110.30
2018-12-02T07:45:31.797Z,97.63
2018-12-02T07:48:00.876Z,114.03
2018-12-02T07:50:29.093Z,100.23
2018-12-02T07:52:57.150Z,98.77
2018-12-02T07:55:25.285Z,77.03
2018-12-02T07:57:53.409Z,99.97
2018-12-02T08:00:21.509Z,103.23
2018-12-02T08:02:49.613Z,96.57
2018-12-02T08:05:18.048Z,102.27
2018-12-02T08:07:48.595Z,98.07
2018-12-02T08:10:19.009Z,106.53
2018-12-02T08:12:47.106Z,117.30
2018-12-02T08:15:18.150Z,108.13
2018-12-02T08:17:46.338Z,103.03
2018-12-02T08:20:18.453Z,111.03
2018-12-02T08:22:51.283Z,115.77
2018-12-02T08:25:17.594Z,114.37
2018-12-02T08:27:45.685Z,103.23
2018-12-02T08:30:18.348Z,103.07
2018-12-02T08:32:47.159Z,105.07
2018-12-02T08:35:16.253Z,89.03
2018-12-02T08:37:45.858Z,93.70
2018-12-02T08:40:14.195Z,95.80
2018-12-02T08:42:42.908Z,102.33
2018-12-02T08:45:14.127Z,93.20
2018-12-02T08:47:42.956Z,92.43
2018-12-02T08:50:16.315Z,87.90
2018-12-02T08:52:46.936Z,86.37
2018-12-02T08:55:17.993Z,120.27
2018-12-02T08:57:47.403Z,107.30
2018-12-02T09:00:20.753Z,82.40
2018-12-02T09:02:51.787Z,98.17
2018-12-02T09:05:19.936Z,93.33
2018-12-02T09:07:51.209Z,93.63
2018-12-02T09:10:23.177Z,100.27
2018-12-02T09:12:54.081Z,116.57
2018-12-02T09:15:22.558Z,114.17
2018-12-02T09:17:51.817Z,107.70
2018-12-02T09:20:28.111Z,104.23
2018-12-02T09:22:56.267Z,104.37
2018-12-02T09:25:24.967Z,105.53
2018-12-02T09:27:53.870Z,95.33
2018-12-02T09:30:23.400Z,103.57
2018-12-02T09:32:51.819Z,94.00
2018-12-02T09:35:21.731Z,95.23
2018-12-02T09:37:50.221Z,81.53
2018-12-02T09:40:18.683Z,94.57
2018-12-02T09:42:47.805Z,103.07
2018-12-02T09:45:21.169Z,89.60
2018-12-02T09:47:50.096Z,92.27
2018-12-02T09:50:18.537Z,97.70
2018-12-02T09:52:46.635Z,94.27
2018-12-02T09:55:24.628Z,89.97
2018-12-02T09:57:55.347Z,91.60
2018-12-02T10:00:23.575Z,92.03
2018-12-02T10:02:53.575Z,91.70
2018-12-02T10:05:21.737Z,96.00
2018-12-02T10:07:50.183Z,84.33
2018-12-02T10:10:22.793Z,99.47
2018-12-02T10:12:58.019Z,97.27
2018-12-02T10:15:30.542Z,95.23
2018-12-02T10:17:58.959Z,93.33
2018-12-02T10:20:28.259Z,100.93
2018-12-02T10:22:56.783Z,98.23
2018-12-02T10:25:25.389Z,88.43
2018-12-02T10:27:55.844Z,87.77
2018-12-02T10:30:24.872Z,94.70
2018-12-02T10:32:54.104Z,91.67
2018-12-02T10:35:22.444Z,94.47
2018-12-02T10:37:51.706Z,93.00
2018-12-02T10:40:22.816Z,95.53
2018-12-02T10:42:51.360Z,91.00
2018-12-02T10:45:23.768Z,85.77
2018-12-02T10:47:54.101Z,76.97
2018-12-02T10:50:35.379Z,78.30
2018-12-02T10:53:05.981Z,82.13
2018-12-02T10:55:44.322Z,76.97
2018-12-02T10:58:18.156Z,82.03
2018-12-02T11:00:58.670Z,79.37
2018-12-02T11:03:26.930Z,70.70
2018-12-02T11:05:54.991Z,68.87
2018-12-02T11:08:23.380Z,69.83
2018-12-02T11:10:51.736Z,71.70
2018-12-02T11:13:19.864Z,73.23
2018-12-02T11:15:48.184Z,68.00
2018-12-02T11:18:17.417Z,68.00
2018-12-02T11:20:45.675Z,70.70
2018-12-02T11:23:13.839Z,70.87
2018-12-02T11:25:42.616Z,74.60
2018-12-02T11:28:11.086Z,70.37
2018-12-02T11:30:40.868Z,71.27
2018-12-02T11:33:09.264Z,68.90
2018-12-02T11:35:37.653Z,70.63
2018-12-02T11:38:10.388Z,72.77
2018-12-02T11:40:40.938Z,71.80
2018-12-02T11:43:11.402Z,69.20
2018-12-02T11:45:41.896Z,72.67
2018-12-02T11:48:10.278Z,70.57
2018-12-02T11:50:39.226Z,72.50
2018-12-02T11:53:08.842Z,73.23
2018-12-02T11:55:37.200Z,71.03
2018-12-02T11:58:07.575Z,75.43
2018-12-02T12:00:39.368Z,72.70
2018-12-02T12:03:07.892Z,61.63
2018-12-02T12:05:36.992Z,65.33
2018-12-02T12:08:06.041Z,62.33
2018-12-02T12:10:34.126Z,68.83
2018-12-02T12:13:02.282Z,64.13
2018-12-02T12:15:31.118Z,61.30
2018-12-02T12:17:59.793Z,71.13
2018-12-02T12:20:31.225Z,67.67
2018-12-02T12:23:00.310Z,69.67
2018-12-02T12:25:29.891Z,65.27
2018-12-02T12:27:59.417Z,63.20
2018-12-02T12:30:28.862Z,67.83
2018-12-02T12:32:58.826Z,61.50
2018-12-02T12:35:27.719Z,60.50
2018-12-02T12:37:59.185Z,60.67
2018-12-02T12:40:31.937Z,55.47
2018-12-02T12:43:10.970Z,53.37
2018-12-02T12:45:41.772Z,59.40
2018-12-02T12:48:11.738Z,58.23
2018-12-02T12:50:40.941Z,54.83
2018-12-02T12:53:09.133Z,55.20
2018-12-02T12:55:37.280Z,55.80
2018-12-02T12:58:06.484Z,59.53
2018-12-02T13:00:35.583Z,57.07
2018-12-02T13:03:03.725Z,57.67
2018-12-02T13:05:32.017Z,53.77
2018-12-02T13:08:01.117Z,59.37
2018-12-02T13:10:29.302Z,54.50
2018-12-02T13:12:57.511Z,58.03
2018-12-02T13:15:26.006Z,58.63
2018-12-02T13:17:56.407Z,55.90
2018-12-02T13:20:28.036Z,56.37
2018-12-02T13:22:58.700Z,57.00
2018-12-02T13:25:27.266Z,55.63
2018-12-02T13:27:55.248Z,56.63
2018-12-02T13:30:24.230Z,58.57
2018-12-02T13:32:53.405Z,55.17
2018-12-02T13:35:21.683Z,58.87
2018-12-02T13:37:49.956Z,55.00
2018-12-02T13:40:19.492Z,56.57
2018-12-02T13:42:50.934Z,53.63
2018-12-02T13:45:20.426Z,54.27
2018-12-02T13:47:48.508Z,57.37
2018-12-02T13:50:21.395Z,58.40
2018-12-02T13:52:54.192Z,60.33
2018-12-02T13:55:24.534Z,58.60
2018-12-02T13:57:54.443Z,59.07
2018-12-02T14:00:24.200Z,60.00
2018-12-02T14:03:08.223Z,61.10
2018-12-02T14:05:38.312Z,60.67
2018-12-02T14:08:06.556Z,59.87
2018-12-02T14:10:35.476Z,61.23
2018-12-02T14:13:11.908Z,61.57
2018-12-02T14:15:50.326Z,61.70
2018-12-02T14:18:23.784Z,60.43
2018-12-02T14:20:52.598Z,59.10
2018-12-02T14:23:20.807Z,59.53
2018-12-02T14:25:49.112Z,66.83
2018-12-02T14:28:20.626Z,74.07
2018-12-02T14:30:50.308Z,84.30
2018-12-02T14:33:21.058Z,91.40
2018-12-02T14:35:49.361Z,97.87
2018-12-02T14:38:17.510Z,94.90
2018-12-02T14:40:47.817Z,104.40
2018-12-02T14:43:15.964Z,96.27
2018-12-02T14:45:44.956Z,90.30
2018-12-02T14:48:13.010Z,100.80
2018-12-02T14:50:41.138Z,106.37
2018-12-02T14:53:11.349Z,108.47
2018-12-02T14:55:40.578Z,128.23
2018-12-02T14:58:09.090Z,139.03
2018-12-02T15:00:38.067Z,114.40
2018-12-02T15:03:07.263Z,127.10
2018-12-02T15:05:36.334Z,127.47
2018-12-02T15:08:04.485Z,121.40
2018-12-02T15:10:32.763Z,121.97
2018-12-02T15:13:00.737Z,124.83
2018-12-02T15:15:28.733Z,116.30
2018-12-02T15:17:56.798Z,112.03
2018-12-02T15:20:25.140Z,118.97
2018-12-02T15:22:53.453Z,113.03
2018-12-02T15:25:21.701Z,114.10
2018-12-02T15:27:49.818Z,125.60
2018-12-02T15:30:18.482Z,116.57
2018-12-02T15:32:48.108Z,121.40
2018-12-02T15:35:17.560Z,137.30
2018-12-02T15:38:17.461Z,137.93
2018-12-02T15:40:45.763Z,112.03
2018-12-02T15:43:15.684Z,116.63
2018-12-02T15:45:45.116Z,122.13
2018-12-02T15:48:14.125Z,118.13
2018-12-02T15:50:50.177Z,121.83
2018-12-02T15:53:15.838Z,128.30
2018-12-02T15:55:44.103Z,126.37
2018-12-02T15:58:14.022Z,155.60
2018-12-02T16:00:48.412Z,137.90
2018-12-02T16:03:17.225Z,203.57
2018-12-02T16:05:45.944Z,140.93
2018-12-02T16:08:16.223Z,139.40
2018-12-02T16:10:45.163Z,123.97
2018-12-02T16:13:13.381Z,120.43
2018-12-02T16:15:42.639Z,124.43
2018-12-02T16:18:12.183Z,126.63
2018-12-02T16:20:58.903Z,110.57
2018-12-02T16:23:27.896Z,105.03
2018-12-02T16:25:56.038Z,102.67
2018-12-02T16:28:25.248Z,118.23
2018-12-02T16:31:00.787Z,132.10
2018-12-02T16:33:35.061Z,154.23
2018-12-02T16:36:04.980Z,164.47
2018-12-02T16:38:33.378Z,148.93
2018-12-02T16:41:01.612Z,173.63
2018-12-02T16:43:36.714Z,145.23
2018-12-02T16:46:07.161Z,141.60
2018-12-02T16:48:36.109Z,135.40
2018-12-02T16:51:07.386Z,126.97
2018-12-02T16:53:45.186Z,131.93
2018-12-02T16:56:16.913Z,126.40
2018-12-02T16:58:50.797Z,128.43
2018-12-02T17:01:23.356Z,104.23
2018-12-02T17:03:55.722Z,112.10
2018-12-02T17:06:28.239Z,119.73
2018-12-02T17:08:57.499Z,121.87
2018-12-02T17:11:25.819Z,127.77
2018-12-02T17:13:55.008Z,103.57
2018-12-02T17:16:23.863Z,107.40
2018-12-02T17:18:57.907Z,104.27
2018-12-02T17:21:28.657Z,98.17
2018-12-02T17:23:58.804Z,100.50
2018-12-02T17:26:29.261Z,97.00
2018-12-02T17:29:00.322Z,99.47
2018-12-02T17:34:44.467Z,119.07
2018-12-02T17:37:16.092Z,109.73
2018-12-02T17:39:50.102Z,104.70
2018-12-02T17:42:20.656Z,131.73
2018-12-02T17:44:53.453Z,132.20
2018-12-02T17:47:21.729Z,134.77
2018-12-02T17:49:50.065Z,132.60
2018-12-02T17:52:18.565Z,125.53
2018-12-02T17:54:50.199Z,130.33
2018-12-02T17:57:23.380Z,133.97
2018-12-02T17:59:51.716Z,139.83
2018-12-02T18:02:23.356Z,142.10
2018-12-02T18:04:55.147Z,167.40
2018-12-02T18:07:24.317Z,184.63
2018-12-02T18:09:55.224Z,183.33
2018-12-02T18:12:27.016Z,185.90
2018-12-02T18:14:55.188Z,187.70
2018-12-02T18:17:25.205Z,181.50
2018-12-02T18:19:53.710Z,187.20
2018-12-02T18:22:22.026Z,186.47
2018-12-02T18:24:50.795Z,187.37
2018-12-02T18:27:19.072Z,184.37
2018-12-02T18:29:47.273Z,179.20
2018-12-02T18:32:15.908Z,178.67
2018-12-02T18:34:45.528Z,180.43
2018-12-02T18:37:14.581Z,169.40
2018-12-02T18:39:44.276Z,175.20
2018-12-02T18:42:13.892Z,171.40
2018-12-02T18:44:43.476Z,167.87
2018-12-02T18:47:11.102Z,171.03
2018-12-02T18:49:39.589Z,169.10
2018-12-02T18:52:08.836Z,164.03
2018-12-02T18:54:37.489Z,179.93
2018-12-02T18:57:06.662Z,175.17
2018-12-02T18:59:36.220Z,180.83
2018-12-02T19:02:05.041Z,179.37
2018-12-02T19:04:33.160Z,195.43
2018-12-02T19:07:01.505Z,219.13
2018-12-02T19:09:29.609Z,240.13
2018-12-02T19:11:58.817Z,235.87
2018-12-02T19:14:27.344Z,256.60
2018-12-02T19:16:56.202Z,246.80
2018-12-02T19:19:24.952Z,247.27
2018-12-02T19:21:54.460Z,252.97
2018-12-02T19:24:26.958Z,249.13
2018-12-02T19:26:55.301Z,248.07
2018-12-02T19:29:25.083Z,238.90
2018-12-02T19:31:53.537Z,225.47
2018-12-02T19:34:22.241Z,244.37
2018-12-02T19:36:52.778Z,230.30
2018-12-02T19:39:20.816Z,219.00
2018-12-02T19:41:48.851Z,249.17
2018-12-02T19:44:18.117Z,234.37
2018-12-02T19:46:47.340Z,208.00
2018-12-02T19:49:16.617Z,213.90
2018-12-02T19:51:45.069Z,234.97
2018-12-02T19:54:13.605Z,213.93
2018-12-02T19:56:41.882Z,215.77
2018-12-02T19:59:10.251Z,214.87
2018-12-02T20:01:38.623Z,211.13
2018-12-02T20:04:06.709Z,217.00
2018-12-02T20:06:35.351Z,208.60
2018-12-02T20:09:05.194Z,199.17
2018-12-02T20:11:34.011Z,205.00
2018-12-02T20:14:02.791Z,213.83
2018-12-02T20:16:31.141Z,220.67
2018-12-02T20:18:59.567Z,230.80
2018-12-02T20:21:30.712Z,264.67
2018-12-02T20:24:04.310Z,297.00
2018-12-02T20:26:32.492Z,317.40
2018-12-02T20:29:00.538Z,314.17
2018-12-02T20:31:30.106Z,402.40
2018-12-02T20:33:58.117Z,496.53
2018-12-02T20:36:26.744Z,546.23
2018-12-02T20:38:54.994Z,555.60
2018-12-02T20:41:23.010Z,573.20
2018-12-02T20:43:50.986Z,605.57
2018-12-02T20:46:19.006Z,618.30
2018-12-02T20:48:47.173Z,610.60
2018-12-02T20:51:15.129Z,569.53
2018-12-02T20:53:43.249Z,565.70
2018-12-02T20:56:11.362Z,564.43
2018-12-02T20:58:39.431Z,568.53
2018-12-02T21:01:07.698Z,518.93
2018-12-02T21:03:39.678Z,511.37
2018-12-02T21:06:13.942Z,496.97
2018-12-02T21:08:42.073Z,441.50
2018-12-02T21:11:10.285Z,465.20
2018-12-02T21:13:38.716Z,454.93
2018-12-02T21:16:07.052Z,463.33
2018-12-02T21:18:35.211Z,395.10
2018-12-02T21:21:03.357Z,444.63
2018-12-02T21:23:31.500Z,428.00
2018-12-02T21:25:59.808Z,368.10
2018-12-02T21:28:28.083Z,423.43
2018-12-02T21:30:56.137Z,437.37
2018-12-02T21:33:24.196Z,387.97
2018-12-02T21:35:52.382Z,369.23
2018-12-02T21:38:20.576Z,341.33
2018-12-02T21:40:48.662Z,408.17
2018-12-02T21:43:16.801Z,352.93
2018-12-02T21:45:45.188Z,401.70
2018-12-02T21:48:18.185Z,418.63
2018-12-02T21:50:49.337Z,442.10
2018-12-02T21:53:17.659Z,409.10
2018-12-02T21:55:46.338Z,410.97
2018-12-02T21:58:14.441Z,412.90
2018-12-02T22:00:45.201Z,438.00
2018-12-02T22:03:14.112Z,396.47
2018-12-02T22:05:42.390Z,377.97
2018-12-02T22:08:10.336Z,326.77
2018-12-02T22:10:38.540Z,351.47
2018-12-02T22:13:06.604Z,380.37
2018-12-02T22:15:35.813Z,402.87
2018-12-02T22:18:04.370Z,382.63
2018-12-02T22:20:32.459Z,363.03
2018-12-02T22:23:00.583Z,407.40
2018-12-02T22:25:28.684Z,379.37
2018-12-02T22:27:58.080Z,394.67
2018-12-02T22:30:26.384Z,377.73
2018-12-02T22:32:56.960Z,353.50
2018-12-02T22:35:26.944Z,354.70
2018-12-02T22:37:55.204Z,404.10
2018-12-02T22:40:24.310Z,412.53
2018-12-02T22:42:53.215Z,429.60
2018-12-02T22:45:26.318Z,452.58
2018-12-02T22:47:54.458Z,422.27
2018-12-02T22:50:23.433Z,414.90
2018-12-02T22:52:52.479Z,426.63
2018-12-02T22:55:20.596Z,427.23
2018-12-02T22:57:48.832Z,402.07
2018-12-02T23:02:26.213Z,416.87
2018-12-02T23:04:54.577Z,417.90
2018-12-02T23:07:22.720Z,398.50
2018-12-02T23:09:50.947Z,410.43
2018-12-02T23:12:19.041Z,408.10
2018-12-02T23:14:47.093Z,404.57
2018-12-02T23:17:20.462Z,419.37
2018-12-02T23:19:48.698Z,432.10
2018-12-02T23:22:17.090Z,408.07
2018-12-02T23:24:45.177Z,403.40
2018-12-02T23:27:13.208Z,409.53
2018-12-02T23:29:41.293Z,405.97
2018-12-02T23:32:09.604Z,379.50
2018-12-02T23:34:37.783Z,380.37
2018-12-02T23:37:05.867Z,392.63
2018-12-02T23:39:34.203Z,421.27
2018-12-02T23:42:02.281Z,405.70
2018-12-02T23:44:30.228Z,401.90
2018-12-02T23:46:58.963Z,406.70
2018-12-02T23:49:27.311Z,410.07
2018-12-02T23:51:55.313Z,359.33
2018-12-02T23:54:23.361Z,334.67
2018-12-02T23:56:51.469Z,332.23
2018-12-02T23:59:19.439Z,326.23
